createdAt,value
2019-05-05T00:01:05.227Z,99.90
2019-05-05T00:03:41.535Z,99.90
2019-05-05T00:06:09.558Z,99.90
2019-05-05T00:08:37.966Z,99.90
2019-05-05T00:11:24.570Z,99.90
2019-05-05T00:14:04.750Z,99.90
2019-05-05T00:16:44.530Z,99.90
2019-05-05T00:19:19.150Z,99.90
2019-05-05T00:21:44.591Z,99.90
2019-05-05T00:24:15.146Z,99.90
2019-05-05T00:26:43.371Z,99.90
2019-05-05T00:29:11.430Z,99.90
2019-05-05T00:31:39.743Z,99.90
2019-05-05T00:34:07.918Z,99.90
2019-05-05T00:36:35.943Z,99.90
2019-05-05T00:39:06.546Z,99.90
2019-05-05T00:41:35.216Z,99.90
2019-05-05T00:44:04.869Z,99.90
2019-05-05T00:47:05.259Z,99.90
2019-05-05T00:49:45.713Z,99.90
2019-05-05T00:52:05.768Z,99.90
2019-05-05T00:54:35.750Z,99.90
2019-05-05T00:57:04.496Z,99.90
2019-05-05T00:59:34.606Z,99.90
2019-05-05T01:02:19.175Z,99.90
2019-05-05T01:05:06.944Z,99.90
2019-05-05T01:07:35.170Z,99.90
2019-05-05T01:10:04.929Z,99.90
2019-05-05T01:12:34.898Z,99.90
2019-05-05T01:15:06.191Z,99.90
2019-05-05T01:17:34.564Z,99.90
2019-05-05T01:20:06.625Z,99.90
2019-05-05T01:22:34.205Z,99.90
2019-05-05T01:25:02.951Z,99.90
2019-05-05T01:27:31.662Z,99.90
2019-05-05T01:29:59.786Z,99.90
2019-05-05T01:32:32.486Z,99.90
2019-05-05T01:35:00.546Z,99.90
2019-05-05T01:37:34.958Z,99.90
2019-05-05T01:40:29.611Z,99.90
2019-05-05T01:42:58.053Z,99.90
2019-05-05T01:45:26.470Z,99.90
2019-05-05T01:47:54.647Z,99.90
2019-05-05T01:50:24.693Z,99.90
2019-05-05T01:52:52.659Z,99.90
2019-05-05T01:55:21.015Z,99.90
2019-05-05T01:57:49.995Z,99.90
2019-05-05T02:00:18.233Z,99.90
2019-05-05T02:02:46.643Z,99.90
2019-05-05T02:05:15.019Z,99.90
2019-05-05T02:07:44.892Z,99.90
2019-05-05T02:10:15.216Z,99.90
2019-05-05T02:12:44.802Z,99.90
2019-05-05T02:15:14.894Z,99.90
2019-05-05T02:17:44.595Z,99.90
2019-05-05T02:20:47.658Z,99.90
2019-05-05T02:23:16.705Z,99.90
2019-05-05T02:25:45.210Z,99.90
2019-05-05T02:28:14.942Z,99.90
2019-05-05T02:31:01.940Z,99.90
2019-05-05T02:33:30.269Z,99.90
2019-05-05T02:35:58.421Z,99.90
2019-05-05T02:38:26.527Z,99.90
2019-05-05T02:40:55.095Z,99.90
2019-05-05T02:43:26.517Z,99.90
2019-05-05T02:46:07.638Z,99.90
2019-05-05T02:48:37.018Z,99.90
2019-05-05T02:51:07.144Z,99.90
2019-05-05T02:53:41.497Z,99.90
2019-05-05T02:56:21.275Z,99.90
2019-05-05T02:58:53.682Z,99.90
2019-05-05T03:01:36.648Z,99.90
2019-05-05T03:04:06.085Z,99.90
2019-05-05T03:06:37.513Z,99.90
2019-05-05T03:09:06.305Z,99.90
2019-05-05T03:11:36.725Z,99.90
2019-05-05T03:14:08.106Z,99.90
2019-05-05T03:16:37.895Z,99.90
2019-05-05T03:19:08.134Z,99.90
2019-05-05T03:21:36.639Z,99.90
2019-05-05T03:24:05.235Z,99.90
2019-05-05T03:26:34.126Z,99.90
2019-05-05T03:29:04.915Z,99.90
2019-05-05T03:31:35.193Z,99.90
2019-05-05T03:34:06.013Z,99.90
2019-05-05T03:36:34.014Z,99.90
2019-05-05T03:39:05.195Z,99.90
2019-05-05T03:41:39.478Z,99.90
2019-05-05T03:44:14.117Z,99.90
2019-05-05T03:46:43.881Z,99.90
2019-05-05T03:49:14.020Z,99.90
2019-05-05T03:51:43.868Z,99.90
2019-05-05T03:54:14.431Z,99.90
2019-05-05T03:56:44.193Z,99.90
2019-05-05T03:59:14.070Z,99.90
2019-05-05T04:02:07.614Z,99.90
2019-05-05T04:04:44.113Z,99.90
2019-05-05T04:07:13.935Z,99.90
2019-05-05T04:09:43.780Z,99.90
2019-05-05T04:12:13.793Z,99.90
2019-05-05T04:14:44.795Z,99.90
2019-05-05T04:17:37.464Z,99.90
2019-05-05T04:20:33.580Z,99.90
2019-05-05T04:23:03.706Z,99.90
2019-05-05T04:25:32.141Z,99.90
2019-05-05T04:28:00.270Z,99.90
2019-05-05T04:30:28.892Z,99.90
2019-05-05T04:32:57.532Z,99.90
2019-05-05T04:35:26.937Z,99.90
2019-05-05T04:37:55.036Z,99.90
2019-05-05T04:40:24.078Z,99.90
2019-05-05T04:42:54.645Z,99.90
2019-05-05T04:45:24.451Z,99.90
2019-05-05T04:47:57.817Z,99.90
2019-05-05T04:50:44.363Z,99.90
2019-05-05T04:53:17.593Z,99.90
2019-05-05T04:55:46.238Z,99.90
2019-05-05T04:58:14.518Z,99.90
2019-05-05T05:00:44.132Z,99.90
2019-05-05T05:03:34.459Z,99.90
2019-05-05T05:06:06.484Z,99.90
2019-05-05T05:08:35.464Z,99.90
2019-05-05T05:11:03.754Z,99.90
2019-05-05T05:13:34.753Z,99.90
2019-05-05T05:16:04.540Z,99.90
2019-05-05T05:18:34.379Z,99.90
2019-05-05T05:21:03.950Z,99.90
2019-05-05T05:23:34.112Z,99.90
2019-05-05T05:26:04.891Z,99.90
2019-05-05T05:28:34.194Z,99.90
2019-05-05T05:31:03.847Z,99.90
2019-05-05T05:33:34.414Z,99.90
2019-05-05T05:36:03.991Z,99.90
2019-05-05T05:38:34.431Z,99.90
2019-05-05T05:41:14.051Z,99.90
2019-05-05T05:44:00.948Z,99.90
2019-05-05T05:46:48.802Z,99.90
2019-05-05T05:49:48.398Z,99.90
2019-05-05T05:52:19.224Z,99.90
2019-05-05T05:54:46.533Z,99.90
2019-05-05T05:57:14.874Z,99.90
2019-05-05T05:59:44.477Z,99.90
2019-05-05T06:02:15.493Z,99.90
2019-05-05T06:04:44.597Z,99.90
2019-05-05T06:07:14.279Z,99.90
2019-05-05T06:09:43.778Z,99.90
2019-05-05T06:12:14.165Z,99.90
2019-05-05T06:14:44.726Z,99.90
2019-05-05T06:17:14.623Z,99.90
2019-05-05T06:19:44.621Z,99.90
2019-05-05T06:22:17.866Z,99.90
2019-05-05T06:24:44.071Z,99.90
2019-05-05T06:27:14.215Z,99.90
2019-05-05T06:29:43.877Z,99.90
2019-05-05T06:32:14.508Z,99.90
2019-05-05T06:34:44.308Z,99.90
2019-05-05T06:37:14.568Z,99.90
2019-05-05T06:39:43.972Z,99.90
2019-05-05T06:42:37.580Z,99.90
2019-05-05T06:45:28.893Z,99.90
2019-05-05T06:47:57.049Z,99.90
2019-05-05T06:50:25.526Z,99.90
2019-05-05T06:52:54.326Z,99.90
2019-05-05T06:55:24.505Z,99.90
2019-05-05T06:57:53.896Z,99.90
2019-05-05T07:00:24.078Z,99.90
2019-05-05T07:02:54.059Z,99.90
2019-05-05T07:05:23.566Z,99.90
2019-05-05T07:07:53.742Z,99.90
2019-05-05T07:10:22.172Z,99.90
2019-05-05T07:12:51.132Z,99.90
2019-05-05T07:15:19.108Z,99.90
2019-05-05T07:17:47.242Z,99.90
2019-05-05T07:20:15.294Z,99.90
2019-05-05T07:22:58.406Z,99.90
2019-05-05T07:25:13.855Z,99.90
2019-05-05T07:27:44.226Z,99.90
2019-05-05T07:30:13.715Z,99.90
2019-05-05T07:32:41.898Z,99.90
2019-05-05T07:35:16.607Z,99.90
2019-05-05T07:37:45.109Z,99.90
2019-05-05T07:40:13.673Z,99.90
2019-05-05T07:42:44.088Z,99.90
2019-05-05T07:45:20.267Z,99.90
2019-05-05T07:47:43.700Z,99.90
2019-05-05T07:50:26.469Z,99.90
2019-05-05T07:52:43.756Z,99.90
2019-05-05T07:55:14.218Z,99.90
2019-05-05T07:57:49.520Z,99.90
2019-05-05T08:00:18.497Z,99.90
2019-05-05T08:02:46.911Z,99.90
2019-05-05T08:05:15.134Z,99.90
2019-05-05T08:07:44.798Z,99.90
2019-05-05T08:10:13.787Z,99.90
2019-05-05T08:12:43.658Z,99.90
2019-05-05T08:15:14.792Z,99.90
2019-05-05T08:18:08.614Z,99.90
2019-05-05T08:20:40.107Z,99.90
2019-05-05T08:23:28.637Z,99.90
2019-05-05T08:25:55.744Z,99.90
2019-05-05T08:28:46.290Z,99.90
2019-05-05T08:31:19.703Z,99.90
2019-05-05T08:33:48.046Z,99.90
2019-05-05T08:36:16.427Z,99.90
2019-05-05T08:38:44.540Z,99.90
2019-05-05T08:41:13.849Z,99.90
2019-05-05T08:43:44.030Z,99.90
2019-05-05T08:46:14.462Z,99.90
2019-05-05T08:48:44.604Z,99.90
2019-05-05T08:51:14.123Z,99.90
2019-05-05T08:53:47.419Z,99.90
2019-05-05T08:56:14.441Z,99.90
2019-05-05T08:58:43.776Z,99.90
2019-05-05T09:01:11.928Z,99.90
2019-05-05T09:03:40.800Z,99.90
2019-05-05T09:06:08.779Z,99.90
2019-05-05T09:08:37.151Z,99.90
2019-05-05T09:11:05.321Z,99.90
2019-05-05T09:13:33.978Z,99.90
2019-05-05T09:16:04.020Z,99.90
2019-05-05T09:18:33.977Z,99.90
2019-05-05T09:21:04.214Z,99.90
2019-05-05T09:23:34.669Z,99.90
2019-05-05T09:26:34.498Z,99.90
2019-05-05T09:29:13.639Z,99.90
2019-05-05T09:31:45.098Z,99.90
2019-05-05T09:34:14.661Z,99.90
2019-05-05T09:36:43.988Z,99.90
2019-05-05T09:39:13.850Z,99.90
2019-05-05T09:41:42.095Z,99.90
2019-05-05T09:44:10.418Z,99.90
2019-05-05T09:46:39.686Z,99.90
2019-05-05T09:49:08.459Z,99.90
2019-05-05T09:51:38.012Z,99.90
2019-05-05T09:54:13.947Z,99.90
2019-05-05T09:56:36.559Z,99.90
2019-05-05T09:59:04.864Z,99.90
2019-05-05T10:01:33.881Z,99.90
2019-05-05T10:04:09.417Z,99.90
2019-05-05T10:06:38.844Z,99.90
2019-05-05T10:09:09.440Z,99.90
2019-05-05T10:11:38.288Z,99.90
2019-05-05T10:14:08.470Z,99.90
2019-05-05T10:16:37.375Z,99.90
2019-05-05T10:19:05.763Z,99.90
2019-05-05T10:21:34.036Z,99.90
2019-05-05T10:24:07.250Z,99.90
2019-05-05T10:26:35.326Z,99.90
2019-05-05T10:29:04.215Z,99.90
2019-05-05T10:31:34.589Z,99.00
2019-05-05T10:34:05.785Z,99.90
2019-05-05T10:36:34.055Z,99.90
2019-05-05T10:39:08.899Z,99.90
2019-05-05T10:41:37.390Z,99.90
2019-05-05T10:44:06.236Z,99.90
2019-05-05T10:46:34.452Z,99.90
2019-05-05T10:49:03.258Z,99.90
2019-05-05T10:51:31.942Z,99.90
2019-05-05T10:54:00.991Z,99.90
2019-05-05T10:56:29.842Z,99.90
2019-05-05T10:58:58.035Z,99.90
2019-05-05T11:01:26.535Z,99.90
2019-05-05T11:03:54.904Z,99.90
2019-05-05T11:06:23.021Z,99.90
2019-05-05T11:08:51.326Z,99.90
2019-05-05T11:11:19.992Z,99.90
2019-05-05T11:13:48.352Z,99.90
2019-05-05T11:16:16.800Z,99.90
2019-05-05T11:18:45.535Z,99.90
2019-05-05T11:21:14.541Z,99.90
2019-05-05T11:23:45.822Z,99.90
2019-05-05T11:26:15.426Z,99.90
2019-05-05T11:28:44.515Z,99.90
2019-05-05T11:31:13.799Z,99.90
2019-05-05T11:33:58.109Z,99.90
2019-05-05T11:36:38.865Z,99.90
2019-05-05T11:39:08.346Z,99.90
2019-05-05T11:41:37.160Z,99.90
2019-05-05T11:44:05.623Z,99.90
2019-05-05T11:46:33.984Z,99.90
2019-05-05T11:49:02.195Z,99.90
2019-05-05T11:51:30.295Z,99.90
2019-05-05T11:53:59.210Z,99.90
2019-05-05T11:56:27.491Z,99.90
2019-05-05T11:58:56.478Z,99.90
2019-05-05T12:01:24.879Z,99.90
2019-05-05T12:03:53.633Z,99.90
2019-05-05T12:06:24.502Z,99.90
2019-05-05T12:08:52.827Z,99.90
2019-05-05T12:11:21.189Z,99.90
2019-05-05T12:13:54.627Z,99.90
2019-05-05T12:16:30.317Z,99.90
2019-05-05T12:19:00.291Z,99.90
2019-05-05T12:21:28.820Z,99.90
2019-05-05T12:23:59.448Z,99.90
2019-05-05T12:26:50.751Z,99.90
2019-05-05T12:29:25.576Z,99.90
2019-05-05T12:31:53.717Z,99.90
2019-05-05T12:34:23.580Z,99.90
2019-05-05T12:36:53.943Z,99.90
2019-05-05T12:39:22.053Z,99.90
2019-05-05T12:41:50.043Z,99.90
2019-05-05T12:44:38.146Z,99.90
2019-05-05T12:47:26.297Z,99.90
2019-05-05T12:49:55.199Z,99.90
2019-05-05T12:52:23.606Z,99.90
2019-05-05T12:54:51.828Z,99.90
2019-05-05T12:57:20.151Z,99.90
2019-05-05T12:59:49.048Z,99.90
2019-05-05T13:02:17.415Z,99.90
2019-05-05T13:04:48.749Z,99.90
2019-05-05T13:07:17.148Z,99.90
2019-05-05T13:09:45.365Z,99.90
2019-05-05T13:12:15.010Z,99.90
2019-05-05T13:14:43.968Z,99.90
2019-05-05T13:17:14.108Z,99.90
2019-05-05T13:19:57.454Z,99.90
2019-05-05T13:22:35.440Z,99.90
2019-05-05T13:25:22.686Z,99.90
2019-05-05T13:27:51.011Z,99.90
2019-05-05T13:30:19.196Z,99.90
2019-05-05T13:32:47.221Z,99.90
2019-05-05T13:35:16.927Z,99.90
2019-05-05T13:37:45.020Z,99.90
2019-05-05T13:40:13.271Z,99.90
2019-05-05T13:42:41.358Z,99.90
2019-05-05T13:45:30.875Z,99.90
2019-05-05T13:47:59.329Z,99.90
2019-05-05T13:50:34.437Z,99.90
2019-05-05T13:53:03.885Z,99.90
2019-05-05T13:55:32.129Z,99.90
2019-05-05T13:58:00.682Z,99.90
2019-05-05T14:00:28.944Z,99.90
2019-05-05T14:02:57.178Z,99.90
2019-05-05T14:05:25.285Z,99.90
2019-05-05T14:07:53.743Z,99.90
2019-05-05T14:10:23.619Z,99.90
2019-05-05T14:12:52.210Z,99.50
2019-05-05T14:15:23.467Z,98.00
2019-05-05T14:17:54.256Z,92.30
2019-05-05T14:20:24.253Z,95.40
2019-05-05T14:22:54.338Z,94.70
2019-05-05T14:25:24.822Z,96.60
2019-05-05T14:27:54.148Z,97.40
2019-05-05T14:30:48.684Z,98.40
2019-05-05T14:33:23.698Z,97.30
2019-05-05T14:36:01.988Z,97.80
2019-05-05T14:38:39.157Z,99.90
2019-05-05T14:41:07.306Z,99.80
2019-05-05T14:43:35.816Z,99.90
2019-05-05T14:46:05.930Z,99.90
2019-05-05T14:48:37.115Z,99.90
2019-05-05T14:51:05.811Z,99.90
2019-05-05T14:53:34.928Z,99.90
2019-05-05T14:56:04.644Z,99.90
2019-05-05T14:58:33.949Z,99.90
2019-05-05T15:01:04.300Z,99.90
2019-05-05T15:03:33.677Z,99.90
2019-05-05T15:06:24.164Z,99.90
2019-05-05T15:09:13.771Z,99.90
2019-05-05T15:11:58.672Z,99.90
2019-05-05T15:14:26.989Z,99.90
2019-05-05T15:16:55.015Z,99.90
2019-05-05T15:19:23.844Z,99.90
2019-05-05T15:21:53.620Z,99.90
2019-05-05T15:24:24.494Z,99.90
2019-05-05T15:26:54.878Z,99.90
2019-05-05T15:29:25.241Z,99.90
2019-05-05T15:31:53.883Z,99.90
2019-05-05T15:34:23.992Z,99.90
2019-05-05T15:36:54.740Z,99.90
2019-05-05T15:39:24.615Z,99.90
2019-05-05T15:41:54.141Z,99.90
2019-05-05T15:44:24.169Z,99.90
2019-05-05T15:46:57.349Z,99.90
2019-05-05T15:49:23.208Z,99.90
2019-05-05T15:51:51.512Z,99.90
2019-05-05T15:54:19.725Z,99.90
2019-05-05T15:56:47.845Z,99.90
2019-05-05T15:59:16.348Z,99.90
2019-05-05T16:01:45.152Z,99.90
2019-05-05T16:04:14.075Z,99.90
2019-05-05T16:06:44.418Z,99.90
2019-05-05T16:09:13.709Z,99.90
2019-05-05T16:11:44.433Z,99.90
2019-05-05T16:14:14.471Z,99.90
2019-05-05T16:16:49.181Z,99.90
2019-05-05T16:19:53.783Z,99.90
2019-05-05T16:22:30.964Z,99.90
2019-05-05T16:25:14.976Z,99.90
2019-05-05T16:27:44.788Z,99.90
2019-05-05T16:30:14.523Z,99.90
2019-05-05T16:32:43.428Z,99.90
2019-05-05T16:35:14.591Z,99.90
2019-05-05T16:37:43.015Z,99.90
2019-05-05T16:40:14.278Z,99.90
2019-05-05T16:42:43.738Z,99.90
2019-05-05T16:45:16.434Z,99.90
2019-05-05T16:47:44.844Z,99.90
2019-05-05T16:50:14.593Z,99.90
2019-05-05T16:52:49.917Z,99.90
2019-05-05T16:55:30.252Z,99.90
2019-05-05T16:57:58.721Z,99.90
2019-05-05T17:00:27.991Z,99.90
2019-05-05T17:02:56.501Z,99.90
2019-05-05T17:05:24.541Z,99.90
2019-05-05T17:07:55.455Z,99.90
2019-05-05T17:10:24.482Z,99.90
2019-05-05T17:12:53.817Z,99.90
2019-05-05T17:15:53.774Z,99.90
2019-05-05T17:18:56.630Z,99.90
2019-05-05T17:21:44.602Z,99.90
2019-05-05T17:24:14.127Z,99.90
2019-05-05T17:26:43.871Z,99.90
2019-05-05T17:29:12.093Z,99.90
2019-05-05T17:31:40.666Z,99.90
2019-05-05T17:34:09.077Z,99.90
2019-05-05T17:36:37.582Z,99.90
2019-05-05T17:39:07.789Z,99.90
2019-05-05T17:41:55.526Z,99.90
2019-05-05T17:44:27.809Z,99.90
2019-05-05T17:47:13.910Z,99.90
2019-05-05T17:50:01.491Z,99.90
2019-05-05T17:52:40.151Z,99.90
2019-05-05T17:55:34.107Z,99.90
2019-05-05T17:58:02.829Z,99.90
2019-05-05T18:00:34.324Z,99.90
2019-05-05T18:03:04.337Z,99.90
2019-05-05T18:05:56.727Z,99.90
2019-05-05T18:08:36.646Z,99.90
2019-05-05T18:11:09.075Z,99.90
2019-05-05T18:13:43.537Z,99.90
2019-05-05T18:16:14.011Z,99.90
2019-05-05T18:18:44.272Z,99.90
2019-05-05T18:21:14.251Z,99.90
2019-05-05T18:23:43.862Z,99.90
2019-05-05T18:26:13.706Z,99.90
2019-05-05T18:28:44.808Z,99.90
2019-05-05T18:31:13.877Z,99.90
2019-05-05T18:33:42.527Z,99.90
2019-05-05T18:36:11.014Z,99.90
2019-05-05T18:38:40.068Z,99.90
2019-05-05T18:41:14.232Z,99.90
2019-05-05T18:43:51.263Z,99.90
2019-05-05T18:46:19.752Z,99.90
2019-05-05T18:48:47.818Z,99.90
2019-05-05T18:51:15.933Z,99.90
2019-05-05T18:53:44.970Z,99.90
2019-05-05T18:56:14.417Z,99.90
2019-05-05T18:58:44.727Z,99.90
2019-05-05T19:01:33.914Z,99.90
2019-05-05T19:04:34.752Z,99.90
2019-05-05T19:07:19.462Z,99.90
2019-05-05T19:09:53.964Z,99.90
2019-05-05T19:12:19.687Z,99.90
2019-05-05T19:14:48.453Z,99.90
2019-05-05T19:17:17.251Z,99.90
2019-05-05T19:19:50.224Z,99.90
2019-05-05T19:22:18.545Z,99.90
2019-05-05T19:24:47.109Z,99.90
2019-05-05T19:27:15.138Z,99.90
2019-05-05T19:29:45.902Z,99.90
2019-05-05T19:32:14.543Z,99.90
2019-05-05T19:34:43.963Z,99.90
2019-05-05T19:37:14.020Z,99.90
2019-05-05T19:39:43.745Z,99.90
2019-05-05T19:42:14.310Z,99.90
2019-05-05T19:44:43.800Z,99.90
2019-05-05T19:47:16.799Z,99.90
2019-05-05T19:49:51.594Z,99.90
2019-05-05T19:52:19.612Z,99.90
2019-05-05T19:54:49.273Z,99.90
2019-05-05T19:57:18.848Z,99.90
2019-05-05T19:59:47.273Z,99.90
2019-05-05T20:02:15.664Z,99.90
2019-05-05T20:04:45.504Z,99.90
2019-05-05T20:07:14.036Z,99.90
2019-05-05T20:09:43.549Z,99.90
2019-05-05T20:12:11.869Z,99.90
2019-05-05T20:14:43.578Z,99.90
2019-05-05T20:17:23.927Z,99.90
2019-05-05T20:19:54.000Z,99.90
2019-05-05T20:22:23.644Z,99.90
2019-05-05T20:24:51.871Z,99.90
2019-05-05T20:27:20.998Z,99.90
2019-05-05T20:29:49.240Z,99.90
2019-05-05T20:32:24.447Z,99.90
2019-05-05T20:35:04.134Z,99.90
2019-05-05T20:37:41.687Z,99.90
2019-05-05T20:40:11.847Z,99.90
2019-05-05T20:42:40.194Z,99.90
2019-05-05T20:45:10.216Z,99.90
2019-05-05T20:47:38.995Z,99.90
2019-05-05T20:50:07.568Z,99.90
2019-05-05T20:52:37.604Z,99.90
2019-05-05T20:55:06.140Z,99.90
2019-05-05T20:57:34.840Z,99.90
2019-05-05T21:00:05.866Z,99.90
2019-05-05T21:02:34.461Z,99.90
2019-05-05T21:05:04.059Z,99.90
2019-05-05T21:07:34.645Z,99.90
2019-05-05T21:10:04.584Z,99.90
2019-05-05T21:12:42.221Z,99.90
2019-05-05T21:15:05.012Z,99.90
2019-05-05T21:17:33.808Z,99.90
2019-05-05T21:20:04.336Z,99.90
2019-05-05T21:22:57.628Z,99.90
2019-05-05T21:25:34.675Z,99.90
2019-05-05T21:28:03.811Z,99.90
2019-05-05T21:30:33.756Z,99.90
2019-05-05T21:33:04.445Z,99.90
2019-05-05T21:35:34.857Z,99.90
2019-05-05T21:38:04.783Z,99.90
2019-05-05T21:40:34.545Z,99.90
2019-05-05T21:43:05.182Z,99.90
2019-05-05T21:45:34.645Z,99.90
2019-05-05T21:48:04.269Z,99.90
2019-05-05T21:50:38.750Z,99.90
2019-05-05T21:53:14.080Z,99.90
2019-05-05T21:56:04.206Z,99.90
2019-05-05T21:58:40.977Z,99.90
2019-05-05T22:01:19.834Z,99.90
2019-05-05T22:03:48.660Z,99.90
2019-05-05T22:06:17.738Z,99.90
2019-05-05T22:08:45.943Z,99.90
2019-05-05T22:11:14.799Z,99.90
2019-05-05T22:13:44.232Z,99.90
2019-05-05T22:16:13.686Z,99.90
2019-05-05T22:18:46.678Z,99.90
2019-05-05T22:21:35.998Z,99.90
2019-05-05T22:24:20.261Z,99.90
2019-05-05T22:26:49.039Z,99.90
2019-05-05T22:29:17.450Z,99.90
2019-05-05T22:31:45.777Z,99.90
2019-05-05T22:34:14.692Z,99.90
2019-05-05T22:36:44.779Z,99.90
2019-05-05T22:39:16.554Z,99.90
2019-05-05T22:41:44.525Z,99.90
2019-05-05T22:44:13.937Z,99.90
2019-05-05T22:46:42.501Z,99.90
2019-05-05T22:49:11.177Z,99.90
2019-05-05T22:51:39.216Z,99.90
2019-05-05T22:54:07.253Z,99.90
2019-05-05T22:56:35.406Z,99.90
2019-05-05T22:59:04.508Z,99.90
2019-05-05T23:01:35.618Z,99.90
2019-05-05T23:04:24.054Z,99.90
2019-05-05T23:07:01.358Z,99.90
2019-05-05T23:09:32.028Z,99.90
2019-05-05T23:12:04.079Z,99.90
2019-05-05T23:14:34.253Z,99.90
2019-05-05T23:17:36.298Z,99.90
2019-05-05T23:20:13.870Z,99.90
2019-05-05T23:22:55.656Z,99.90
2019-05-05T23:25:33.779Z,99.90
2019-05-05T23:28:04.745Z,99.90
2019-05-05T23:30:41.495Z,99.90
2019-05-05T23:33:07.608Z,99.90
2019-05-05T23:35:37.668Z,99.90
2019-05-05T23:38:07.710Z,99.90
2019-05-05T23:40:37.786Z,99.90
2019-05-05T23:43:08.223Z,99.90
2019-05-05T23:45:38.432Z,99.90
2019-05-05T23:48:08.781Z,99.90
2019-05-05T23:50:40.394Z,99.90
2019-05-05T23:53:10.371Z,99.90
2019-05-05T23:55:40.392Z,99.90
2019-05-05T23:58:10.422Z,99.90
